createdAt,value
2023-02-22T00:00:08.461Z,16.79
2023-02-22T00:01:08.503Z,16.77
2023-02-22T00:02:08.577Z,16.77
2023-02-22T00:03:08.593Z,16.76
2023-02-22T00:04:08.661Z,16.76
2023-02-22T00:05:08.664Z,16.77
2023-02-22T00:06:08.690Z,16.75
2023-02-22T00:07:08.781Z,16.76
2023-02-22T00:08:08.837Z,16.79
2023-02-22T00:09:08.873Z,16.77
2023-02-22T00:10:08.874Z,16.75
2023-02-22T00:11:09.066Z,16.76
2023-02-22T00:12:08.995Z,16.77
2023-02-22T00:13:09.035Z,16.80
2023-02-22T00:14:09.075Z,16.73
2023-02-22T00:15:09.122Z,16.77
2023-02-22T00:16:09.170Z,16.73
2023-02-22T00:17:09.234Z,16.76
2023-02-22T00:18:09.269Z,16.73
2023-02-22T00:19:09.301Z,16.73
2023-02-22T00:20:09.384Z,16.72
2023-02-22T00:21:09.377Z,16.70
2023-02-22T00:23:09.685Z,16.75
2023-02-22T00:24:09.535Z,16.71
2023-02-22T00:25:09.566Z,16.72
2023-02-22T00:26:09.599Z,16.73
2023-02-22T00:27:09.624Z,16.73
2023-02-22T00:28:09.692Z,16.75
2023-02-22T00:29:09.727Z,16.72
2023-02-22T00:30:09.760Z,16.70
2023-02-22T00:31:09.783Z,16.72
2023-02-22T00:32:09.908Z,16.68
2023-02-22T00:33:09.887Z,16.68
2023-02-22T00:34:09.923Z,16.76
2023-02-22T00:35:09.950Z,16.71
2023-02-22T00:36:10.027Z,16.69
2023-02-22T00:37:10.106Z,16.66
2023-02-22T00:38:10.105Z,16.71
2023-02-22T00:39:10.166Z,16.75
2023-02-22T00:40:10.197Z,16.64
2023-02-22T00:41:10.289Z,16.64
2023-02-22T00:42:10.307Z,16.67
2023-02-22T00:43:10.382Z,16.70
2023-02-22T00:44:10.420Z,16.69
2023-02-22T00:45:10.467Z,16.69
2023-02-22T00:46:10.585Z,16.69
2023-02-22T00:47:10.525Z,16.67
2023-02-22T00:48:10.602Z,16.67
2023-02-22T00:49:10.702Z,16.70
2023-02-22T00:50:10.675Z,16.63
2023-02-22T00:51:10.728Z,16.66
2023-02-22T00:52:10.755Z,16.70
2023-02-22T00:53:10.840Z,16.71
2023-02-22T00:54:10.895Z,16.67
2023-02-22T00:55:10.930Z,16.64
2023-02-22T00:56:10.952Z,16.70
2023-02-22T00:57:10.982Z,16.67
2023-02-22T00:58:11.024Z,16.66
2023-02-22T00:59:11.103Z,16.69
2023-02-22T01:00:11.124Z,16.69
2023-02-22T01:01:11.144Z,16.70
2023-02-22T01:02:11.208Z,16.69
2023-02-22T01:03:11.244Z,16.64
2023-02-22T01:04:11.239Z,16.66
2023-02-22T01:05:11.266Z,16.64
2023-02-22T01:06:11.340Z,16.61
2023-02-22T01:07:11.352Z,16.64
2023-02-22T01:08:11.393Z,16.66
2023-02-22T01:09:11.454Z,16.62
2023-02-22T01:10:11.498Z,16.63
2023-02-22T01:11:11.524Z,16.56
2023-02-22T01:12:11.568Z,16.64
2023-02-22T01:13:11.597Z,16.67
2023-02-22T01:14:11.657Z,16.61
2023-02-22T01:15:11.665Z,16.64
2023-02-22T01:16:11.745Z,16.63
2023-02-22T01:17:11.740Z,16.63
2023-02-22T01:18:11.825Z,16.63
2023-02-22T01:19:11.824Z,16.69
2023-02-22T01:20:11.868Z,16.60
2023-02-22T01:21:11.917Z,16.64
2023-02-22T01:22:11.952Z,16.63
2023-02-22T01:23:11.993Z,16.63
2023-02-22T01:24:12.039Z,16.65
2023-02-22T01:25:12.104Z,16.61
2023-02-22T01:26:12.152Z,16.63
2023-02-22T01:27:12.143Z,16.65
2023-02-22T01:28:12.188Z,16.63
2023-02-22T01:29:12.269Z,16.61
2023-02-22T01:30:12.313Z,16.64
2023-02-22T01:31:12.343Z,16.57
2023-02-22T01:32:12.520Z,16.55
2023-02-22T01:33:12.392Z,16.60
2023-02-22T01:34:12.456Z,16.58
2023-02-22T01:35:12.493Z,16.61
2023-02-22T01:36:12.522Z,16.63
2023-02-22T01:37:12.566Z,16.63
2023-02-22T01:38:12.603Z,16.60
2023-02-22T01:39:12.623Z,16.61
2023-02-22T01:40:12.643Z,16.60
2023-02-22T01:41:12.691Z,16.61
2023-02-22T01:42:12.732Z,16.60
2023-02-22T01:43:12.797Z,16.60
2023-02-22T01:44:12.844Z,16.63
2023-02-22T01:45:12.860Z,16.60
2023-02-22T01:46:12.925Z,16.63
2023-02-22T01:47:12.950Z,16.61
2023-02-22T01:48:12.982Z,16.57
2023-02-22T01:49:13.008Z,16.61
2023-02-22T01:50:13.056Z,16.58
2023-02-22T01:51:13.064Z,16.58
2023-02-22T01:52:13.119Z,16.63
2023-02-22T01:53:13.142Z,16.61
2023-02-22T01:54:13.215Z,16.60
2023-02-22T01:55:13.255Z,16.58
2023-02-22T01:56:13.287Z,16.57
2023-02-22T01:57:13.338Z,16.54
2023-02-22T01:58:13.375Z,16.58
2023-02-22T01:59:13.422Z,16.60
2023-02-22T02:00:13.476Z,16.61
2023-02-22T02:36:15.052Z,16.47
2023-02-22T02:37:15.070Z,16.45
2023-02-22T02:38:15.120Z,16.50
2023-02-22T02:39:15.155Z,16.45
2023-02-22T02:40:15.254Z,16.50
2023-02-22T02:41:15.596Z,16.51
2023-02-22T02:42:15.278Z,16.45
2023-02-22T02:43:15.348Z,16.47
2023-02-22T02:44:15.431Z,16.44
2023-02-22T02:45:15.479Z,16.49
2023-02-22T02:46:15.525Z,16.47
2023-02-22T02:47:15.619Z,16.47
2023-02-22T02:48:15.619Z,16.49
2023-02-22T02:49:15.703Z,16.47
2023-02-22T02:50:15.730Z,16.50
2023-02-22T02:51:16.076Z,16.48
2023-02-22T02:52:15.807Z,16.45
2023-02-22T02:53:15.834Z,16.47
2023-02-22T02:54:16.150Z,16.44
2023-02-22T02:55:15.972Z,16.44
2023-02-22T02:56:15.979Z,16.45
2023-02-22T02:57:16.066Z,16.44
2023-02-22T02:58:16.017Z,16.47
2023-02-22T02:59:16.131Z,16.44
2023-02-22T03:00:16.132Z,16.44
2023-02-22T03:01:16.527Z,16.50
2023-02-22T03:02:16.230Z,16.45
2023-02-22T03:03:16.291Z,16.44
2023-02-22T03:04:16.319Z,16.47
2023-02-22T03:05:16.378Z,16.46
2023-02-22T03:06:16.404Z,16.43
2023-02-22T03:07:16.475Z,16.42
2023-02-22T03:08:16.493Z,16.40
2023-02-22T03:09:16.571Z,16.38
2023-02-22T03:10:16.615Z,16.38
2023-02-22T03:11:17.003Z,16.38
2023-02-22T03:12:16.666Z,16.38
2023-02-22T03:13:16.702Z,16.37
2023-02-22T03:14:16.750Z,16.39
2023-02-22T03:15:16.811Z,16.38
2023-02-22T03:16:16.823Z,16.35
2023-02-22T03:17:16.864Z,16.31
2023-02-22T03:18:16.939Z,16.28
2023-02-22T03:19:16.912Z,16.31
2023-02-22T03:20:16.968Z,16.30
2023-02-22T03:21:17.184Z,16.27
2023-02-22T03:22:16.974Z,16.25
2023-02-22T03:23:17.015Z,16.23
2023-02-22T03:24:17.046Z,16.25
2023-02-22T03:25:17.084Z,16.23
2023-02-22T03:26:17.096Z,16.25
2023-02-22T03:27:17.109Z,16.21
2023-02-22T03:28:17.135Z,16.24
2023-02-22T03:29:17.131Z,16.12
2023-02-22T03:30:17.180Z,16.17
2023-02-22T03:31:17.671Z,16.18
2023-02-22T03:32:17.220Z,16.10
2023-02-22T03:33:17.205Z,16.14
2023-02-22T03:34:17.226Z,16.16
2023-02-22T03:35:17.248Z,16.09
2023-02-22T03:36:17.254Z,16.12
2023-02-22T03:37:17.270Z,16.04
2023-02-22T03:38:17.307Z,16.04
2023-02-22T03:39:17.329Z,16.03
2023-02-22T03:40:17.363Z,16.09
2023-02-22T03:41:17.790Z,16.02
2023-02-22T03:42:17.379Z,16.06
2023-02-22T03:43:17.365Z,16.00
2023-02-22T03:44:17.476Z,15.99
2023-02-22T03:45:17.418Z,15.99
2023-02-22T03:46:17.490Z,16.02
2023-02-22T03:47:17.497Z,16.00
2023-02-22T03:48:17.515Z,15.96
2023-02-22T03:49:17.511Z,16.02
2023-02-22T03:50:17.568Z,15.98
2023-02-22T03:51:17.609Z,15.96
2023-02-22T03:52:17.572Z,15.95
2023-02-22T03:53:17.598Z,16.04
2023-02-22T03:54:17.604Z,15.99
2023-02-22T03:55:17.637Z,15.99
2023-02-22T03:56:17.640Z,15.99
2023-02-22T03:57:17.649Z,16.01
2023-02-22T03:58:17.675Z,15.95
2023-02-22T03:59:17.691Z,15.99
2023-02-22T04:00:17.676Z,15.99
2023-02-22T04:01:18.047Z,16.02
2023-02-22T04:02:17.746Z,15.99
2023-02-22T04:03:17.804Z,16.01
2023-02-22T04:04:17.796Z,16.01
2023-02-22T04:05:17.776Z,16.01
2023-02-22T04:06:17.830Z,16.03
2023-02-22T04:07:17.850Z,15.96
2023-02-22T04:08:17.869Z,15.96
2023-02-22T04:09:17.861Z,15.98
2023-02-22T04:10:17.899Z,15.98
2023-02-22T04:11:18.168Z,15.97
2023-02-22T04:12:17.904Z,16.02
2023-02-22T04:13:17.940Z,15.95
2023-02-22T04:14:17.968Z,15.96
2023-02-22T04:15:18.007Z,15.99
2023-02-22T04:16:18.071Z,15.96
2023-02-22T04:17:18.022Z,15.96
2023-02-22T04:18:18.056Z,15.99
2023-02-22T04:19:18.072Z,15.92
2023-02-22T04:20:18.094Z,16.00
2023-02-22T04:21:18.447Z,15.99
2023-02-22T04:22:18.141Z,15.93
2023-02-22T04:23:18.194Z,15.97
2023-02-22T04:24:18.173Z,16.03
2023-02-22T04:25:18.196Z,15.97
2023-02-22T04:26:18.230Z,15.99
2023-02-22T04:27:18.240Z,16.00
2023-02-22T04:28:18.306Z,15.93
2023-02-22T04:29:18.325Z,15.99
2023-02-22T04:30:18.380Z,15.97
2023-02-22T04:31:18.740Z,15.99
2023-02-22T04:32:18.415Z,15.94
2023-02-22T04:33:18.371Z,15.97
2023-02-22T04:34:18.412Z,15.89
2023-02-22T04:35:18.426Z,15.96
2023-02-22T04:36:18.447Z,15.96
2023-02-22T04:37:18.487Z,15.90
2023-02-22T04:38:18.539Z,15.91
2023-02-22T04:39:18.597Z,15.95
2023-02-22T04:40:18.560Z,15.94
2023-02-22T04:41:18.966Z,15.97
2023-02-22T04:42:18.627Z,15.97
2023-02-22T04:43:18.660Z,15.90
2023-02-22T04:44:18.671Z,15.95
2023-02-22T04:45:18.733Z,15.94
2023-02-22T04:46:18.771Z,15.94
2023-02-22T04:47:18.769Z,15.95
2023-02-22T04:48:18.797Z,15.91
2023-02-22T04:49:18.842Z,15.94
2023-02-22T04:50:18.863Z,15.90
2023-02-22T04:51:19.123Z,15.91
2023-02-22T04:52:18.890Z,15.93
2023-02-22T04:53:18.898Z,15.88
2023-02-22T04:54:18.947Z,15.91
2023-02-22T04:55:18.977Z,15.93
2023-02-22T04:56:19.008Z,15.90
2023-02-22T04:57:19.038Z,15.90
2023-02-22T04:58:19.043Z,15.95
2023-02-22T04:59:19.072Z,15.88
2023-02-22T05:00:19.082Z,15.87
2023-02-22T05:01:19.431Z,15.88
2023-02-22T05:02:19.194Z,15.84
2023-02-22T05:03:19.201Z,15.90
2023-02-22T05:04:19.225Z,15.93
2023-02-22T05:05:19.237Z,15.91
2023-02-22T05:06:19.309Z,15.90
2023-02-22T05:07:19.301Z,15.86
2023-02-22T05:08:19.315Z,15.90
2023-02-22T05:09:19.334Z,15.86
2023-02-22T05:12:19.447Z,15.86
2023-02-22T05:13:19.472Z,15.84
2023-02-22T05:14:19.462Z,15.87
2023-02-22T05:43:20.254Z,15.81
2023-02-22T05:45:20.300Z,15.80
2023-02-22T05:46:20.343Z,15.81
2023-02-22T06:01:27.721Z,15.77
2023-02-22T08:26:21.481Z,22.07
2023-02-22T08:27:21.527Z,22.03
2023-02-22T08:28:21.519Z,22.20
2023-02-22T08:29:21.473Z,22.30
2023-02-22T08:30:21.539Z,22.31
2023-02-22T08:31:21.530Z,21.69
2023-02-22T08:32:21.609Z,21.60
2023-02-22T08:33:21.601Z,21.72
2023-02-22T08:34:21.593Z,18.49
2023-02-22T08:35:21.594Z,16.92
2023-02-22T08:36:21.611Z,16.80
2023-02-22T08:37:21.607Z,16.76
2023-02-22T08:38:21.675Z,17.12
2023-02-22T08:39:21.660Z,17.39
2023-02-22T08:40:21.706Z,17.77
2023-02-22T08:41:22.106Z,18.08
2023-02-22T08:42:21.760Z,17.95
2023-02-22T08:43:21.842Z,18.33
2023-02-22T08:44:21.876Z,18.40
2023-02-22T08:47:22.045Z,19.23
2023-02-22T08:48:22.067Z,19.23
2023-02-22T08:51:22.164Z,19.26
2023-02-22T08:52:22.166Z,19.49
2023-02-22T08:53:22.204Z,19.43
2023-02-22T08:57:22.333Z,19.28
2023-02-22T08:58:22.402Z,19.01
2023-02-22T08:59:22.393Z,18.49
2023-02-22T09:02:22.681Z,17.88
2023-02-22T10:10:24.124Z,15.92
2023-02-22T10:27:25.129Z,16.15
2023-02-22T10:29:25.063Z,16.21
2023-02-22T10:30:25.853Z,16.26
2023-02-22T10:31:25.268Z,16.32
2023-02-22T10:32:25.344Z,16.76
2023-02-22T10:33:25.295Z,16.93
2023-02-22T10:34:25.346Z,16.95
2023-02-22T10:35:25.401Z,17.24
2023-02-22T10:36:25.414Z,17.89
2023-02-22T10:37:25.714Z,17.55
2023-02-22T10:38:25.552Z,17.11
2023-02-22T10:39:25.583Z,17.59
2023-02-22T10:40:25.624Z,18.52
2023-02-22T10:41:25.645Z,18.36
2023-02-22T10:42:26.159Z,18.72
2023-02-22T10:43:25.798Z,18.61
2023-02-22T10:44:25.774Z,18.82
2023-02-22T10:45:25.808Z,18.66
2023-02-22T10:46:25.853Z,18.67
2023-02-22T10:47:25.887Z,18.92
2023-02-22T10:48:26.473Z,19.19
2023-02-22T10:49:26.033Z,19.32
2023-02-22T10:50:26.076Z,19.67
2023-02-22T10:51:26.107Z,19.67
2023-02-22T10:52:26.163Z,19.63
2023-02-22T10:53:26.168Z,19.80
2023-02-22T10:54:26.207Z,20.19
2023-02-22T10:55:26.219Z,20.45
2023-02-22T10:56:26.271Z,20.49
2023-02-22T10:57:26.269Z,20.43
2023-02-22T10:58:26.496Z,20.19
2023-02-22T10:59:26.388Z,20.34
2023-02-22T11:00:26.601Z,20.61
2023-02-22T11:01:26.537Z,20.81
2023-02-22T11:02:26.710Z,21.00
2023-02-22T11:03:26.578Z,20.94
2023-02-22T11:04:26.557Z,20.83
2023-02-22T11:05:26.582Z,21.10
2023-02-22T11:06:26.606Z,21.23
2023-02-22T11:07:26.645Z,21.32
2023-02-22T11:08:26.664Z,21.23
2023-02-22T11:09:26.704Z,21.48
2023-02-22T11:10:26.695Z,21.33
2023-02-22T11:11:26.720Z,21.57
2023-02-22T11:12:26.699Z,21.42
2023-02-22T11:13:26.736Z,21.34
2023-02-22T11:14:26.735Z,21.77
2023-02-22T11:15:26.723Z,21.53
2023-02-22T11:16:26.769Z,21.50
2023-02-22T11:17:26.744Z,21.66
2023-02-22T11:18:26.782Z,21.55
2023-02-22T11:19:26.773Z,21.70
2023-02-22T11:20:26.774Z,21.18
2023-02-22T11:21:26.803Z,21.78
2023-02-22T11:22:26.805Z,21.77
2023-02-22T11:23:27.102Z,21.73
2023-02-22T11:24:30.327Z,21.89
2023-02-22T11:25:27.909Z,21.79
2023-02-22T11:34:26.647Z,22.08
2023-02-22T15:43:30.771Z,19.02
2023-02-22T15:51:30.766Z,18.80
2023-02-22T16:07:31.262Z,18.50
2023-02-22T16:18:30.506Z,18.58
2023-02-22T16:19:30.519Z,18.55
2023-02-22T16:20:30.504Z,18.58
2023-02-22T16:21:30.529Z,18.53
2023-02-22T16:22:30.557Z,18.51
2023-02-22T16:23:30.569Z,18.55
2023-02-22T16:24:30.569Z,18.53
2023-02-22T16:25:30.582Z,18.55
2023-02-22T16:26:30.572Z,18.53
2023-02-22T16:27:30.580Z,18.44
2023-02-22T16:28:30.687Z,18.44
2023-02-22T16:29:30.784Z,18.52
2023-02-22T16:30:30.732Z,18.52
2023-02-22T16:31:30.754Z,18.50
2023-02-22T16:32:30.747Z,18.51
2023-02-22T16:33:30.656Z,18.52
2023-02-22T16:34:30.667Z,18.54
2023-02-22T16:35:30.683Z,18.51
2023-02-22T16:36:30.722Z,18.48
2023-02-22T16:37:30.734Z,18.44
2023-02-22T16:38:30.761Z,18.44
2023-02-22T16:39:30.765Z,18.45
2023-02-22T16:40:30.780Z,18.46
2023-02-22T16:41:30.779Z,18.39
2023-02-22T16:42:30.882Z,18.35
2023-02-22T16:43:30.802Z,18.41
2023-02-22T16:44:30.861Z,18.44
2023-02-22T16:45:31.029Z,18.35
2023-02-22T16:46:30.944Z,18.42
2023-02-22T16:47:30.977Z,18.35
2023-02-22T16:48:30.924Z,18.42
2023-02-22T16:49:30.967Z,18.35
2023-02-22T16:50:30.951Z,18.38
2023-02-22T16:51:30.958Z,18.36
2023-02-22T16:52:30.976Z,18.35
2023-02-22T16:53:30.958Z,18.31
2023-02-22T16:54:31.354Z,18.26
2023-02-22T16:55:31.350Z,18.33
2023-02-22T16:56:31.385Z,18.28
2023-02-22T16:57:30.996Z,18.29
2023-02-22T16:58:31.008Z,18.32
2023-02-22T16:59:31.005Z,18.32
2023-02-22T17:00:31.096Z,18.38
2023-02-22T17:01:31.057Z,18.33
2023-02-22T17:02:31.037Z,18.33
2023-02-22T17:03:31.077Z,18.30
2023-02-22T17:04:31.057Z,18.31
2023-02-22T17:05:31.141Z,18.32
2023-02-22T17:06:31.129Z,18.26
2023-02-22T17:07:31.122Z,18.29
2023-02-22T17:08:31.164Z,18.29
2023-02-22T17:09:31.154Z,18.30
2023-02-22T17:10:31.177Z,18.35
2023-02-22T17:11:31.199Z,18.39
2023-02-22T17:12:31.203Z,18.29
2023-02-22T17:13:31.202Z,18.30
2023-02-22T17:14:31.229Z,18.33
2023-02-22T17:15:31.266Z,18.30
2023-02-22T17:16:31.248Z,18.29
2023-02-22T17:17:31.434Z,18.29
2023-02-22T17:18:31.261Z,18.36
2023-02-22T17:19:31.283Z,18.30
2023-02-22T17:20:31.318Z,18.29
2023-02-22T17:21:31.329Z,18.27
2023-02-22T17:22:31.406Z,18.26
2023-02-22T17:23:31.384Z,18.32
2023-02-22T17:24:31.452Z,18.32
2023-02-22T17:25:31.445Z,18.34
2023-02-22T17:26:31.458Z,18.34
2023-02-22T17:27:31.458Z,18.34
2023-02-22T17:28:31.513Z,18.33
2023-02-22T17:29:31.541Z,18.33
2023-02-22T17:30:31.594Z,18.37
2023-02-22T17:31:31.641Z,18.38
2023-02-22T17:32:31.607Z,18.40
2023-02-22T17:33:31.579Z,18.37
2023-02-22T17:34:31.662Z,18.38
2023-02-22T17:35:31.655Z,18.34
2023-02-22T17:36:31.698Z,18.36
2023-02-22T17:37:31.700Z,18.35
2023-02-22T17:38:31.752Z,18.37
2023-02-22T17:39:31.760Z,18.37
2023-02-22T17:40:31.822Z,18.34
2023-02-22T17:41:31.805Z,18.34
2023-02-22T17:42:31.832Z,18.37
2023-02-22T17:43:31.859Z,18.31
2023-02-22T17:44:31.905Z,18.38
2023-02-22T17:45:31.925Z,18.44
2023-02-22T17:46:32.047Z,18.45
2023-02-22T17:47:32.013Z,18.50
2023-02-22T17:48:32.024Z,18.48
2023-02-22T17:49:32.064Z,18.42
2023-02-22T17:50:32.072Z,18.42
2023-02-22T17:51:32.081Z,18.41
2023-02-22T17:52:32.118Z,18.39
2023-02-22T17:53:32.125Z,18.42
2023-02-22T17:54:32.170Z,18.35
2023-02-22T17:55:32.168Z,18.37
2023-02-22T17:56:32.226Z,18.39
2023-02-22T17:57:32.233Z,18.38
2023-02-22T17:58:32.291Z,18.35
2023-02-22T17:59:32.313Z,18.37
2023-02-22T18:00:32.333Z,18.32
2023-02-22T21:37:40.543Z,18.36
2023-02-22T21:38:40.579Z,18.32
2023-02-22T21:39:40.636Z,18.33
2023-02-22T21:40:40.678Z,18.30
2023-02-22T21:41:41.076Z,18.29
2023-02-22T21:42:40.775Z,18.32
2023-02-22T21:43:40.825Z,18.26
2023-02-22T21:44:40.870Z,18.30
2023-02-22T21:45:40.912Z,18.29
2023-02-22T21:46:40.961Z,18.29
2023-02-22T21:47:40.996Z,18.32
2023-02-22T21:48:41.038Z,18.33
2023-02-22T21:49:41.072Z,18.36
2023-02-22T21:50:41.103Z,18.38
2023-02-22T21:51:41.167Z,18.36
2023-02-22T21:52:41.178Z,18.35
2023-02-22T21:53:41.230Z,18.36
2023-02-22T21:54:41.431Z,18.36
2023-02-22T21:55:41.327Z,18.36
2023-02-22T21:56:41.351Z,18.32
2023-02-22T21:57:41.388Z,18.33
2023-02-22T21:58:41.429Z,18.32
2023-02-22T21:59:41.522Z,18.39
2023-02-22T22:00:41.512Z,18.36
2023-02-22T22:01:41.671Z,18.39
2023-02-22T22:02:41.646Z,18.33
2023-02-22T22:03:41.613Z,18.42
2023-02-22T22:04:41.710Z,18.40
2023-02-22T22:05:41.716Z,18.37
2023-02-22T22:06:41.765Z,18.33
2023-02-22T22:07:41.772Z,18.40
2023-02-22T22:08:41.849Z,18.37
2023-02-22T22:09:41.851Z,18.39
2023-02-22T22:10:41.925Z,18.36
2023-02-22T22:11:41.965Z,18.37
2023-02-22T22:12:42.015Z,18.33
2023-02-22T22:13:42.058Z,18.34
2023-02-22T22:14:42.085Z,18.39
2023-02-22T22:15:42.183Z,18.37
2023-02-22T22:16:42.181Z,18.37
2023-02-22T22:17:42.207Z,18.34
2023-02-22T22:18:42.245Z,18.36
2023-02-22T22:19:42.310Z,18.36
2023-02-22T22:20:42.306Z,18.34
2023-02-22T22:21:42.368Z,18.37
2023-02-22T22:22:42.420Z,18.34
2023-02-22T22:23:42.437Z,18.37
2023-02-22T22:24:42.941Z,18.34
2023-02-22T22:25:42.526Z,18.34
2023-02-22T22:26:42.602Z,18.39
2023-02-22T22:27:42.629Z,18.40
2023-02-22T22:28:42.698Z,18.33
2023-02-22T22:29:42.704Z,18.34
2023-02-22T22:30:42.834Z,18.36
2023-02-22T22:31:42.853Z,18.34
2023-02-22T22:32:42.837Z,18.36
2023-02-22T22:33:42.858Z,18.39
2023-02-22T22:34:42.928Z,18.39
2023-02-22T22:35:42.970Z,18.39
2023-02-22T22:36:43.020Z,18.37
2023-02-22T22:37:43.037Z,18.41
2023-02-22T22:38:43.116Z,18.36
2023-02-22T22:39:43.179Z,18.36
2023-02-22T22:40:43.184Z,18.39
2023-02-22T22:41:43.230Z,18.36
2023-02-22T22:42:43.249Z,18.40
2023-02-22T22:43:43.296Z,18.39
2023-02-22T22:44:43.348Z,18.39
2023-02-22T22:45:43.389Z,18.43
2023-02-22T22:46:43.615Z,18.39
2023-02-22T22:47:43.468Z,18.40
2023-02-22T22:48:43.507Z,18.39
2023-02-22T22:49:43.546Z,18.37
2023-02-22T22:50:43.629Z,18.37
2023-02-22T22:51:43.610Z,18.39
2023-02-22T22:52:43.658Z,18.37
2023-02-22T22:53:43.682Z,18.37
2023-02-22T22:54:43.734Z,18.34
2023-02-22T22:55:43.755Z,18.40
2023-02-22T22:56:43.788Z,18.37
2023-02-22T22:57:43.843Z,18.39
2023-02-22T22:58:43.903Z,18.34
2023-02-22T22:59:43.957Z,18.34
2023-02-22T23:00:43.956Z,18.39
2023-02-22T23:01:44.039Z,18.36
2023-02-22T23:02:44.062Z,18.37
2023-02-22T23:03:44.163Z,18.37
2023-02-22T23:04:44.127Z,18.38
2023-02-22T23:05:44.201Z,18.41
2023-02-22T23:06:44.301Z,18.37
2023-02-22T23:07:44.254Z,18.36
2023-02-22T23:08:44.302Z,18.34
2023-02-22T23:09:44.401Z,18.37
2023-02-22T23:10:44.378Z,18.37
2023-02-22T23:11:44.839Z,18.39
2023-02-22T23:12:44.501Z,18.34
2023-02-22T23:13:44.528Z,18.41
2023-02-22T23:14:44.534Z,18.39
2023-02-22T23:15:44.619Z,18.39
2023-02-22T23:16:44.637Z,18.36
2023-02-22T23:17:44.698Z,18.36
2023-02-22T23:18:44.744Z,18.32
2023-02-22T23:19:44.790Z,18.36
2023-02-22T23:20:44.842Z,18.32
2023-02-22T23:21:44.886Z,18.39
2023-02-22T23:22:45.000Z,18.36
2023-02-22T23:23:44.986Z,18.33
2023-02-22T23:24:45.007Z,18.36
2023-02-22T23:25:45.074Z,18.34
2023-02-22T23:26:45.072Z,18.36
2023-02-22T23:27:45.094Z,18.34
2023-02-22T23:28:45.095Z,18.37
2023-02-22T23:29:45.152Z,18.33
2023-02-22T23:30:45.250Z,18.33
2023-02-22T23:31:45.332Z,18.37
2023-02-22T23:32:45.316Z,18.39
2023-02-22T23:33:45.328Z,18.38
2023-02-22T23:34:45.431Z,18.37
2023-02-22T23:35:45.409Z,18.40
2023-02-22T23:36:45.470Z,18.38
2023-02-22T23:37:45.530Z,18.41
2023-02-22T23:38:45.561Z,18.38
2023-02-22T23:39:45.588Z,18.42
2023-02-22T23:40:45.680Z,18.42
2023-02-22T23:41:45.761Z,18.41
2023-02-22T23:42:45.732Z,18.44
2023-02-22T23:43:45.804Z,18.44
2023-02-22T23:44:45.859Z,18.47
2023-02-22T23:45:45.924Z,18.51
2023-02-22T23:46:45.907Z,18.42
2023-02-22T23:47:45.926Z,18.44
2023-02-22T23:48:45.968Z,18.42
2023-02-22T23:49:45.994Z,18.48
2023-02-22T23:50:46.102Z,18.48
2023-02-22T23:51:46.056Z,18.48
2023-02-22T23:52:46.039Z,18.44
2023-02-22T23:53:46.068Z,18.50
2023-02-22T23:54:46.100Z,18.53
2023-02-22T23:55:46.117Z,18.54
2023-02-22T23:56:46.135Z,18.55
2023-02-22T23:57:46.171Z,18.58
2023-02-22T23:58:46.216Z,18.55
2023-02-22T23:59:46.245Z,18.60
